sensor_id;sensor_type;location;lat;lon;timestamp;temperature;humidity
74661;SHT31;63191;39.566;2.654;2022-09-09T00:00:49;26.29;71.57
74661;SHT31;63191;39.566;2.654;2022-09-09T00:03:29;26.26;71.60
74661;SHT31;63191;39.566;2.654;2022-09-09T00:06:32;26.23;71.67
74661;SHT31;63191;39.566;2.654;2022-09-09T00:11:49;26.22;71.70
74661;SHT31;63191;39.566;2.654;2022-09-09T00:14:23;26.21;71.70
74661;SHT31;63191;39.566;2.654;2022-09-09T00:17:09;26.19;71.71
74661;SHT31;63191;39.566;2.654;2022-09-09T00:23:12;26.12;71.74
74661;SHT31;63191;39.566;2.654;2022-09-09T00:25:53;26.07;71.91
74661;SHT31;63191;39.566;2.654;2022-09-09T00:28:23;26.04;71.99
74661;SHT31;63191;39.566;2.654;2022-09-09T00:30:52;26.03;72.11
74661;SHT31;63191;39.566;2.654;2022-09-09T00:33:23;26.04;72.15
74661;SHT31;63191;39.566;2.654;2022-09-09T00:35:51;26.03;72.17
74661;SHT31;63191;39.566;2.654;2022-09-09T00:38:24;26.03;72.26
74661;SHT31;63191;39.566;2.654;2022-09-09T00:53:24;26.00;72.78
74661;SHT31;63191;39.566;2.654;2022-09-09T00:56:44;25.99;72.82
74661;SHT31;63191;39.566;2.654;2022-09-09T01:02:24;25.94;72.82
74661;SHT31;63191;39.566;2.654;2022-09-09T01:08:05;25.89;72.91
74661;SHT31;63191;39.566;2.654;2022-09-09T01:11:22;25.88;73.01
74661;SHT31;63191;39.566;2.654;2022-09-09T01:13:53;25.89;73.10
74661;SHT31;63191;39.566;2.654;2022-09-09T01:16:44;25.90;73.08
74661;SHT31;63191;39.566;2.654;2022-09-09T01:19:15;25.90;73.02
74661;SHT31;63191;39.566;2.654;2022-09-09T01:22:09;25.89;73.00
74661;SHT31;63191;39.566;2.654;2022-09-09T01:25:13;25.89;73.00
74661;SHT31;63191;39.566;2.654;2022-09-09T01:27:55;25.88;73.00
74661;SHT31;63191;39.566;2.654;2022-09-09T01:30:27;25.88;72.96
74661;SHT31;63191;39.566;2.654;2022-09-09T01:32:55;25.88;72.93
74661;SHT31;63191;39.566;2.654;2022-09-09T01:37:56;25.88;72.86
74661;SHT31;63191;39.566;2.654;2022-09-09T01:40:23;25.87;72.88
74661;SHT31;63191;39.566;2.654;2022-09-09T01:42:50;25.85;72.85
74661;SHT31;63191;39.566;2.654;2022-09-09T01:45:17;25.83;72.82
74661;SHT31;63191;39.566;2.654;2022-09-09T01:47:43;25.82;72.80
74661;SHT31;63191;39.566;2.654;2022-09-09T01:50:10;25.82;72.79
74661;SHT31;63191;39.566;2.654;2022-09-09T01:52:39;25.81;72.78
74661;SHT31;63191;39.566;2.654;2022-09-09T01:55:06;25.79;72.78
74661;SHT31;63191;39.566;2.654;2022-09-09T01:57:33;25.79;72.78
74661;SHT31;63191;39.566;2.654;2022-09-09T02:01:00;25.77;72.80
74661;SHT31;63191;39.566;2.654;2022-09-09T02:03:36;25.74;72.83
74661;SHT31;63191;39.566;2.654;2022-09-09T02:08:49;25.70;72.97
74661;SHT31;63191;39.566;2.654;2022-09-09T02:11:19;25.68;73.04
74661;SHT31;63191;39.566;2.654;2022-09-09T02:13:47;25.66;73.18
74661;SHT31;63191;39.566;2.654;2022-09-09T02:21:38;25.59;73.22
74661;SHT31;63191;39.566;2.654;2022-09-09T02:24:07;25.55;73.30
74661;SHT31;63191;39.566;2.654;2022-09-09T02:26:36;25.53;73.33
74661;SHT31;63191;39.566;2.654;2022-09-09T02:29:08;25.50;73.40
74661;SHT31;63191;39.566;2.654;2022-09-09T02:31:39;25.48;73.46
74661;SHT31;63191;39.566;2.654;2022-09-09T02:34:07;25.46;73.50
74661;SHT31;63191;39.566;2.654;2022-09-09T02:36:36;25.42;73.55
74661;SHT31;63191;39.566;2.654;2022-09-09T02:39:05;25.39;73.67
74661;SHT31;63191;39.566;2.654;2022-09-09T02:41:34;25.38;73.77
74661;SHT31;63191;39.566;2.654;2022-09-09T02:44:13;25.36;73.82
74661;SHT31;63191;39.566;2.654;2022-09-09T02:46:55;25.36;73.80
74661;SHT31;63191;39.566;2.654;2022-09-09T02:52:33;25.34;73.91
74661;SHT31;63191;39.566;2.654;2022-09-09T02:55:26;25.33;74.02
74661;SHT31;63191;39.566;2.654;2022-09-09T02:58:45;25.31;74.16
74661;SHT31;63191;39.566;2.654;2022-09-09T03:01:11;25.31;74.17
74661;SHT31;63191;39.566;2.654;2022-09-09T03:03:37;25.33;74.15
74661;SHT31;63191;39.566;2.654;2022-09-09T03:06:04;25.33;74.24
74661;SHT31;63191;39.566;2.654;2022-09-09T03:08:30;25.32;74.29
74661;SHT31;63191;39.566;2.654;2022-09-09T03:10:58;25.32;74.29
74661;SHT31;63191;39.566;2.654;2022-09-09T03:13:26;25.30;74.36
74661;SHT31;63191;39.566;2.654;2022-09-09T03:15:52;25.29;74.43
74661;SHT31;63191;39.566;2.654;2022-09-09T03:18:17;25.29;74.43
74661;SHT31;63191;39.566;2.654;2022-09-09T03:20:45;25.30;74.47
74661;SHT31;63191;39.566;2.654;2022-09-09T03:23:13;25.31;74.50
74661;SHT31;63191;39.566;2.654;2022-09-09T03:25:39;25.32;74.53
74661;SHT31;63191;39.566;2.654;2022-09-09T03:28:13;25.31;74.55
74661;SHT31;63191;39.566;2.654;2022-09-09T03:30:39;25.31;74.59
74661;SHT31;63191;39.566;2.654;2022-09-09T03:33:04;25.30;74.60
74661;SHT31;63191;39.566;2.654;2022-09-09T03:35:30;25.31;74.59
74661;SHT31;63191;39.566;2.654;2022-09-09T03:37:56;25.33;74.61
74661;SHT31;63191;39.566;2.654;2022-09-09T03:40:21;25.34;74.60
74661;SHT31;63191;39.566;2.654;2022-09-09T03:42:47;25.35;74.58
74661;SHT31;63191;39.566;2.654;2022-09-09T03:45:13;25.36;74.56
74661;SHT31;63191;39.566;2.654;2022-09-09T03:47:39;25.35;74.51
74661;SHT31;63191;39.566;2.654;2022-09-09T03:50:06;25.34;74.56
74661;SHT31;63191;39.566;2.654;2022-09-09T03:52:38;25.33;74.56
74661;SHT31;63191;39.566;2.654;2022-09-09T03:55:06;25.35;74.64
74661;SHT31;63191;39.566;2.654;2022-09-09T03:57:33;25.37;74.71
74661;SHT31;63191;39.566;2.654;2022-09-09T04:00:03;25.37;74.78
74661;SHT31;63191;39.566;2.654;2022-09-09T04:02:32;25.38;74.80
74661;SHT31;63191;39.566;2.654;2022-09-09T04:04:58;25.37;74.80
74661;SHT31;63191;39.566;2.654;2022-09-09T04:07:24;25.37;74.80
74661;SHT31;63191;39.566;2.654;2022-09-09T04:09:52;25.37;74.80
74661;SHT31;63191;39.566;2.654;2022-09-09T04:12:19;25.36;74.90
74661;SHT31;63191;39.566;2.654;2022-09-09T04:14:45;25.35;74.90
74661;SHT31;63191;39.566;2.654;2022-09-09T04:17:11;25.35;74.99
74661;SHT31;63191;39.566;2.654;2022-09-09T04:19:37;25.33;75.11
74661;SHT31;63191;39.566;2.654;2022-09-09T04:22:03;25.32;75.22
74661;SHT31;63191;39.566;2.654;2022-09-09T04:24:29;25.32;75.31
74661;SHT31;63191;39.566;2.654;2022-09-09T04:26:54;25.34;75.31
74661;SHT31;63191;39.566;2.654;2022-09-09T04:29:22;25.34;75.30
74661;SHT31;63191;39.566;2.654;2022-09-09T04:31:48;25.35;75.30
74661;SHT31;63191;39.566;2.654;2022-09-09T04:34:13;25.36;75.30
74661;SHT31;63191;39.566;2.654;2022-09-09T04:36:39;25.36;75.29
74661;SHT31;63191;39.566;2.654;2022-09-09T04:39:05;25.35;75.27
74661;SHT31;63191;39.566;2.654;2022-09-09T04:41:32;25.33;75.22
74661;SHT31;63191;39.566;2.654;2022-09-09T04:43:58;25.34;75.19
74661;SHT31;63191;39.566;2.654;2022-09-09T04:46:25;25.33;75.11
74661;SHT31;63191;39.566;2.654;2022-09-09T04:48:51;25.33;75.12
74661;SHT31;63191;39.566;2.654;2022-09-09T04:51:17;25.32;75.15
74661;SHT31;63191;39.566;2.654;2022-09-09T04:53:44;25.30;75.16
74661;SHT31;63191;39.566;2.654;2022-09-09T04:56:15;25.28;75.19
74661;SHT31;63191;39.566;2.654;2022-09-09T04:58:43;25.25;75.19
74661;SHT31;63191;39.566;2.654;2022-09-09T05:01:16;25.24;75.20
74661;SHT31;63191;39.566;2.654;2022-09-09T05:03:44;25.24;75.27
74661;SHT31;63191;39.566;2.654;2022-09-09T05:06:12;25.22;75.28
74661;SHT31;63191;39.566;2.654;2022-09-09T05:08:41;25.21;75.30
74661;SHT31;63191;39.566;2.654;2022-09-09T05:11:18;25.20;75.25
74661;SHT31;63191;39.566;2.654;2022-09-09T05:13:51;25.18;75.30
74661;SHT31;63191;39.566;2.654;2022-09-09T05:16:18;25.17;75.30
74661;SHT31;63191;39.566;2.654;2022-09-09T05:18:46;25.18;75.32
74661;SHT31;63191;39.566;2.654;2022-09-09T05:21:14;25.19;75.30
74661;SHT31;63191;39.566;2.654;2022-09-09T05:23:41;25.22;75.26
74661;SHT31;63191;39.566;2.654;2022-09-09T05:26:08;25.24;75.22
74661;SHT31;63191;39.566;2.654;2022-09-09T05:28:38;25.26;75.20
74661;SHT31;63191;39.566;2.654;2022-09-09T05:31:05;25.27;75.20
74661;SHT31;63191;39.566;2.654;2022-09-09T05:33:33;25.29;75.15
74661;SHT31;63191;39.566;2.654;2022-09-09T05:36:02;25.31;75.09
74661;SHT31;63191;39.566;2.654;2022-09-09T05:38:37;25.37;74.96
74661;SHT31;63191;39.566;2.654;2022-09-09T05:41:03;25.43;74.85
74661;SHT31;63191;39.566;2.654;2022-09-09T05:43:32;25.50;74.69
74661;SHT31;63191;39.566;2.654;2022-09-09T05:46:07;25.58;74.55
74661;SHT31;63191;39.566;2.654;2022-09-09T05:48:39;25.68;74.38
74661;SHT31;63191;39.566;2.654;2022-09-09T05:51:08;25.80;74.22
74661;SHT31;63191;39.566;2.654;2022-09-09T05:53:41;25.96;73.96
74661;SHT31;63191;39.566;2.654;2022-09-09T05:56:09;26.17;73.64
74661;SHT31;63191;39.566;2.654;2022-09-09T05:58:40;26.37;73.37
74661;SHT31;63191;39.566;2.654;2022-09-09T06:03:39;26.83;72.67
74661;SHT31;63191;39.566;2.654;2022-09-09T06:06:08;27.03;72.27
74661;SHT31;63191;39.566;2.654;2022-09-09T06:08:38;27.16;71.98
74661;SHT31;63191;39.566;2.654;2022-09-09T06:11:08;27.44;71.45
74661;SHT31;63191;39.566;2.654;2022-09-09T06:13:42;27.76;70.85
74661;SHT31;63191;39.566;2.654;2022-09-09T06:16:10;27.98;70.31
74661;SHT31;63191;39.566;2.654;2022-09-09T06:18:40;28.17;69.89
74661;SHT31;63191;39.566;2.654;2022-09-09T06:21:09;28.32;69.47
74661;SHT31;63191;39.566;2.654;2022-09-09T06:23:41;28.57;69.03
74661;SHT31;63191;39.566;2.654;2022-09-09T06:28:45;29.24;67.58
74661;SHT31;63191;39.566;2.654;2022-09-09T06:31:13;29.65;66.67
74661;SHT31;63191;39.566;2.654;2022-09-09T06:33:46;29.91;65.76
74661;SHT31;63191;39.566;2.654;2022-09-09T06:36:21;30.28;64.74
74661;SHT31;63191;39.566;2.654;2022-09-09T06:38:56;30.88;63.29
74661;SHT31;63191;39.566;2.654;2022-09-09T06:41:23;31.23;62.58
74661;SHT31;63191;39.566;2.654;2022-09-09T06:43:53;31.44;61.88
74661;SHT31;63191;39.566;2.654;2022-09-09T06:46:24;31.84;60.99
74661;SHT31;63191;39.566;2.654;2022-09-09T06:48:53;32.49;59.75
74661;SHT31;63191;39.566;2.654;2022-09-09T06:51:25;33.15;58.58
74661;SHT31;63191;39.566;2.654;2022-09-09T06:54:00;34.06;56.80
74661;SHT31;63191;39.566;2.654;2022-09-09T06:56:29;34.87;54.96
74661;SHT31;63191;39.566;2.654;2022-09-09T06:59:02;35.35;53.36
74661;SHT31;63191;39.566;2.654;2022-09-09T07:01:31;35.86;52.27
74661;SHT31;63191;39.566;2.654;2022-09-09T07:04:03;36.40;51.21
74661;SHT31;63191;39.566;2.654;2022-09-09T07:06:33;36.76;50.16
74661;SHT31;63191;39.566;2.654;2022-09-09T07:09:03;37.07;49.22
74661;SHT31;63191;39.566;2.654;2022-09-09T07:11:32;37.34;48.49
74661;SHT31;63191;39.566;2.654;2022-09-09T07:14:03;37.61;47.85
74661;SHT31;63191;39.566;2.654;2022-09-09T07:16:29;38.02;47.56
74661;SHT31;63191;39.566;2.654;2022-09-09T07:18:58;38.55;46.44
74661;SHT31;63191;39.566;2.654;2022-09-09T07:21:25;39.00;45.98
74661;SHT31;63191;39.566;2.654;2022-09-09T07:23:53;39.48;45.46
74661;SHT31;63191;39.566;2.654;2022-09-09T07:26:21;39.92;44.56
74661;SHT31;63191;39.566;2.654;2022-09-09T07:28:52;40.25;43.91
74661;SHT31;63191;39.566;2.654;2022-09-09T07:31:20;39.85;43.93
74661;SHT31;63191;39.566;2.654;2022-09-09T07:33:50;38.89;44.93
74661;SHT31;63191;39.566;2.654;2022-09-09T07:36:17;37.96;45.47
74661;SHT31;63191;39.566;2.654;2022-09-09T07:38:48;37.06;46.27
74661;SHT31;63191;39.566;2.654;2022-09-09T07:41:22;36.34;47.45
74661;SHT31;63191;39.566;2.654;2022-09-09T07:44:14;35.55;48.47
74661;SHT31;63191;39.566;2.654;2022-09-09T07:46:43;34.81;49.70
74661;SHT31;63191;39.566;2.654;2022-09-09T07:49:11;34.33;50.64
74661;SHT31;63191;39.566;2.654;2022-09-09T07:51:39;33.87;51.61
74661;SHT31;63191;39.566;2.654;2022-09-09T07:54:09;33.41;52.89
74661;SHT31;63191;39.566;2.654;2022-09-09T07:56:38;33.33;53.60
74661;SHT31;63191;39.566;2.654;2022-09-09T07:59:05;33.32;53.93
74661;SHT31;63191;39.566;2.654;2022-09-09T08:01:36;32.97;54.87
74661;SHT31;63191;39.566;2.654;2022-09-09T08:04:16;32.82;55.81
74661;SHT31;63191;39.566;2.654;2022-09-09T08:06:45;32.85;56.04
74661;SHT31;63191;39.566;2.654;2022-09-09T08:09:18;32.67;56.68
74661;SHT31;63191;39.566;2.654;2022-09-09T08:11:45;32.35;57.62
74661;SHT31;63191;39.566;2.654;2022-09-09T08:14:12;32.27;58.45
74661;SHT31;63191;39.566;2.654;2022-09-09T08:16:40;32.48;58.25
74661;SHT31;63191;39.566;2.654;2022-09-09T08:19:09;32.51;58.30
74661;SHT31;63191;39.566;2.654;2022-09-09T08:21:36;32.30;59.10
74661;SHT31;63191;39.566;2.654;2022-09-09T08:24:05;32.11;59.80
74661;SHT31;63191;39.566;2.654;2022-09-09T08:26:34;32.24;60.23
74661;SHT31;63191;39.566;2.654;2022-09-09T08:29:03;32.60;59.06
74661;SHT31;63191;39.566;2.654;2022-09-09T08:31:36;32.60;59.26
74661;SHT31;63191;39.566;2.654;2022-09-09T08:34:13;32.42;60.07
74661;SHT31;63191;39.566;2.654;2022-09-09T08:36:41;32.38;60.42
74661;SHT31;63191;39.566;2.654;2022-09-09T08:39:10;32.49;60.61
74661;SHT31;63191;39.566;2.654;2022-09-09T08:53:10;32.16;62.34
74661;SHT31;63191;39.566;2.654;2022-09-09T08:55:47;32.75;61.38
74661;SHT31;63191;39.566;2.654;2022-09-09T09:03:38;32.85;61.13
74661;SHT31;63191;39.566;2.654;2022-09-09T09:11:48;32.96;60.62
74661;SHT31;63191;39.566;2.654;2022-09-09T09:17:04;33.09;59.01
74661;SHT31;63191;39.566;2.654;2022-09-09T09:19:37;32.48;61.00
74661;SHT31;63191;39.566;2.654;2022-09-09T09:22:30;32.12;62.04
74661;SHT31;63191;39.566;2.654;2022-09-09T09:27:39;31.84;62.72
74661;SHT31;63191;39.566;2.654;2022-09-09T09:30:34;31.77;62.83
74661;SHT31;63191;39.566;2.654;2022-09-09T09:33:23;31.76;62.47
74661;SHT31;63191;39.566;2.654;2022-09-09T09:36:01;32.01;61.44
74661;SHT31;63191;39.566;2.654;2022-09-09T09:38:28;31.89;61.83
74661;SHT31;63191;39.566;2.654;2022-09-09T09:40:56;31.78;62.07
74661;SHT31;63191;39.566;2.654;2022-09-09T09:43:25;31.75;62.47
74661;SHT31;63191;39.566;2.654;2022-09-09T09:46:05;31.86;62.40
74661;SHT31;63191;39.566;2.654;2022-09-09T09:49:00;32.16;61.52
74661;SHT31;63191;39.566;2.654;2022-09-09T09:51:30;32.48;60.16
74661;SHT31;63191;39.566;2.654;2022-09-09T09:54:03;32.90;58.46
74661;SHT31;63191;39.566;2.654;2022-09-09T09:56:38;33.20;57.40
74661;SHT31;63191;39.566;2.654;2022-09-09T09:59:17;32.94;57.19
74661;SHT31;63191;39.566;2.654;2022-09-09T10:01:47;32.54;58.12
74661;SHT31;63191;39.566;2.654;2022-09-09T10:04:14;32.31;58.83
74661;SHT31;63191;39.566;2.654;2022-09-09T10:06:48;32.14;59.40
74661;SHT31;63191;39.566;2.654;2022-09-09T10:09:24;31.97;60.05
74661;SHT31;63191;39.566;2.654;2022-09-09T10:26:37;31.84;60.41
74661;SHT31;63191;39.566;2.654;2022-09-09T10:35:39;31.99;60.14
74661;SHT31;63191;39.566;2.654;2022-09-09T10:38:42;32.30;59.08
74661;SHT31;63191;39.566;2.654;2022-09-09T10:41:20;32.74;58.04
74661;SHT31;63191;39.566;2.654;2022-09-09T10:50:55;33.45;55.81
74661;SHT31;63191;39.566;2.654;2022-09-09T10:53:44;33.06;56.83
74661;SHT31;63191;39.566;2.654;2022-09-09T10:56:39;32.80;56.98
74661;SHT31;63191;39.566;2.654;2022-09-09T10:59:16;32.63;57.33
74661;SHT31;63191;39.566;2.654;2022-09-09T11:04:35;32.40;58.08
74661;SHT31;63191;39.566;2.654;2022-09-09T11:07:22;32.29;57.68
74661;SHT31;63191;39.566;2.654;2022-09-09T11:09:58;32.16;58.15
74661;SHT31;63191;39.566;2.654;2022-09-09T11:12:32;32.02;58.93
74661;SHT31;63191;39.566;2.654;2022-09-09T11:15:06;31.90;58.69
74661;SHT31;63191;39.566;2.654;2022-09-09T11:17:48;31.80;58.87
74661;SHT31;63191;39.566;2.654;2022-09-09T11:20:19;31.81;57.82
74661;SHT31;63191;39.566;2.654;2022-09-09T11:22:49;31.92;59.07
74661;SHT31;63191;39.566;2.654;2022-09-09T11:25:46;31.98;59.03
74661;SHT31;63191;39.566;2.654;2022-09-09T11:39:48;33.84;55.30
74661;SHT31;63191;39.566;2.654;2022-09-09T11:42:20;34.71;53.41
74661;SHT31;63191;39.566;2.654;2022-09-09T11:44:49;35.66;51.39
74661;SHT31;63191;39.566;2.654;2022-09-09T11:47:28;36.43;49.41
74661;SHT31;63191;39.566;2.654;2022-09-09T11:52:40;36.92;48.00
74661;SHT31;63191;39.566;2.654;2022-09-09T11:55:26;36.52;49.12
74661;SHT31;63191;39.566;2.654;2022-09-09T12:00:50;35.99;47.98
74661;SHT31;63191;39.566;2.654;2022-09-09T12:09:05;35.05;50.37
74661;SHT31;63191;39.566;2.654;2022-09-09T12:11:40;34.77;51.69
74661;SHT31;63191;39.566;2.654;2022-09-09T12:14:18;34.79;51.62
74661;SHT31;63191;39.566;2.654;2022-09-09T12:16:47;34.84;51.35
74661;SHT31;63191;39.566;2.654;2022-09-09T12:19:19;34.77;51.26
74661;SHT31;63191;39.566;2.654;2022-09-09T12:27:44;33.52;55.76
74661;SHT31;63191;39.566;2.654;2022-09-09T12:31:00;32.95;56.44
74661;SHT31;63191;39.566;2.654;2022-09-09T12:33:33;32.39;57.53
74661;SHT31;63191;39.566;2.654;2022-09-09T12:36:10;32.01;59.27
74661;SHT31;63191;39.566;2.654;2022-09-09T12:38:41;31.79;58.68
74661;SHT31;63191;39.566;2.654;2022-09-09T12:41:22;31.74;59.06
74661;SHT31;63191;39.566;2.654;2022-09-09T12:43:51;31.72;60.83
74661;SHT31;63191;39.566;2.654;2022-09-09T12:46:39;31.60;60.83
74661;SHT31;63191;39.566;2.654;2022-09-09T12:49:31;31.49;61.14
74661;SHT31;63191;39.566;2.654;2022-09-09T12:52:02;31.35;61.12
74661;SHT31;63191;39.566;2.654;2022-09-09T12:54:36;31.20;62.22
74661;SHT31;63191;39.566;2.654;2022-09-09T12:57:03;31.15;62.69
74661;SHT31;63191;39.566;2.654;2022-09-09T12:59:37;31.22;61.88
74661;SHT31;63191;39.566;2.654;2022-09-09T13:02:18;31.42;61.07
74661;SHT31;63191;39.566;2.654;2022-09-09T13:04:48;31.67;59.49
74661;SHT31;63191;39.566;2.654;2022-09-09T13:07:16;31.72;60.89
74661;SHT31;63191;39.566;2.654;2022-09-09T13:09:45;31.55;61.45
74661;SHT31;63191;39.566;2.654;2022-09-09T13:12:16;31.34;61.62
74661;SHT31;63191;39.566;2.654;2022-09-09T13:14:53;31.18;62.86
74661;SHT31;63191;39.566;2.654;2022-09-09T13:17:23;31.09;63.31
74661;SHT31;63191;39.566;2.654;2022-09-09T13:19:52;31.05;63.01
74661;SHT31;63191;39.566;2.654;2022-09-09T13:22:52;31.03;63.23
74661;SHT31;63191;39.566;2.654;2022-09-09T13:25:17;31.16;60.91
74661;SHT31;63191;39.566;2.654;2022-09-09T13:30:32;31.22;63.68
74661;SHT31;63191;39.566;2.654;2022-09-09T13:38:21;31.17;59.48
74661;SHT31;63191;39.566;2.654;2022-09-09T13:41:00;31.24;60.05
74661;SHT31;63191;39.566;2.654;2022-09-09T13:43:41;31.31;61.75
74661;SHT31;63191;39.566;2.654;2022-09-09T13:51:36;30.99;63.90
74661;SHT31;63191;39.566;2.654;2022-09-09T13:54:05;30.94;64.30
74661;SHT31;63191;39.566;2.654;2022-09-09T13:56:35;30.83;64.80
74661;SHT31;63191;39.566;2.654;2022-09-09T13:59:04;30.80;65.35
74661;SHT31;63191;39.566;2.654;2022-09-09T14:01:36;30.82;62.11
74661;SHT31;63191;39.566;2.654;2022-09-09T14:04:02;30.87;61.06
74661;SHT31;63191;39.566;2.654;2022-09-09T14:06:31;30.85;60.40
74661;SHT31;63191;39.566;2.654;2022-09-09T14:08:58;30.78;60.29
74661;SHT31;63191;39.566;2.654;2022-09-09T14:11:24;30.77;60.58
74661;SHT31;63191;39.566;2.654;2022-09-09T14:13:50;30.74;59.93
74661;SHT31;63191;39.566;2.654;2022-09-09T14:16:16;30.73;60.55
74661;SHT31;63191;39.566;2.654;2022-09-09T14:18:43;30.72;60.49
74661;SHT31;63191;39.566;2.654;2022-09-09T14:21:10;30.74;60.12
74661;SHT31;63191;39.566;2.654;2022-09-09T14:23:36;30.71;60.86
74661;SHT31;63191;39.566;2.654;2022-09-09T14:26:03;30.66;60.64
74661;SHT31;63191;39.566;2.654;2022-09-09T14:28:31;30.64;62.53
74661;SHT31;63191;39.566;2.654;2022-09-09T14:31:01;30.62;65.12
74661;SHT31;63191;39.566;2.654;2022-09-09T14:33:30;30.60;65.07
74661;SHT31;63191;39.566;2.654;2022-09-09T14:36:00;30.55;64.50
74661;SHT31;63191;39.566;2.654;2022-09-09T14:38:29;30.55;63.54
74661;SHT31;63191;39.566;2.654;2022-09-09T14:40:59;30.63;61.54
74661;SHT31;63191;39.566;2.654;2022-09-09T14:43:28;30.72;61.07
74661;SHT31;63191;39.566;2.654;2022-09-09T14:45:55;30.81;60.73
74661;SHT31;63191;39.566;2.654;2022-09-09T14:48:21;30.86;59.39
74661;SHT31;63191;39.566;2.654;2022-09-09T14:50:46;30.86;60.92
74661;SHT31;63191;39.566;2.654;2022-09-09T14:53:13;30.81;61.84
74661;SHT31;63191;39.566;2.654;2022-09-09T14:55:42;30.75;59.97
74661;SHT31;63191;39.566;2.654;2022-09-09T14:58:07;30.82;57.57
74661;SHT31;63191;39.566;2.654;2022-09-09T15:00:33;30.93;58.00
74661;SHT31;63191;39.566;2.654;2022-09-09T15:02:59;31.00;58.65
74661;SHT31;63191;39.566;2.654;2022-09-09T15:05:24;31.03;58.21
74661;SHT31;63191;39.566;2.654;2022-09-09T15:07:50;31.02;57.96
74661;SHT31;63191;39.566;2.654;2022-09-09T15:10:16;31.03;58.22
74661;SHT31;63191;39.566;2.654;2022-09-09T15:12:43;31.00;58.92
74661;SHT31;63191;39.566;2.654;2022-09-09T15:15:10;31.01;59.50
74661;SHT31;63191;39.566;2.654;2022-09-09T15:17:37;31.08;59.46
74661;SHT31;63191;39.566;2.654;2022-09-09T15:20:03;31.13;59.16
74661;SHT31;63191;39.566;2.654;2022-09-09T15:22:31;31.19;58.78
74661;SHT31;63191;39.566;2.654;2022-09-09T15:24:57;31.27;58.73
74661;SHT31;63191;39.566;2.654;2022-09-09T15:27:23;31.33;58.97
74661;SHT31;63191;39.566;2.654;2022-09-09T15:29:49;31.37;59.27
74661;SHT31;63191;39.566;2.654;2022-09-09T15:32:17;31.39;59.16
74661;SHT31;63191;39.566;2.654;2022-09-09T15:34:43;31.39;59.55
74661;SHT31;63191;39.566;2.654;2022-09-09T15:37:12;31.38;60.27
74661;SHT31;63191;39.566;2.654;2022-09-09T15:39:38;31.38;61.08
74661;SHT31;63191;39.566;2.654;2022-09-09T15:42:06;31.36;60.84
74661;SHT31;63191;39.566;2.654;2022-09-09T15:44:42;31.33;60.17
74661;SHT31;63191;39.566;2.654;2022-09-09T15:47:12;31.32;60.47
74661;SHT31;63191;39.566;2.654;2022-09-09T15:49:38;31.29;60.74
74661;SHT31;63191;39.566;2.654;2022-09-09T15:52:04;31.24;61.12
74661;SHT31;63191;39.566;2.654;2022-09-09T15:54:36;31.21;61.75
74661;SHT31;63191;39.566;2.654;2022-09-09T15:57:05;31.17;61.51
74661;SHT31;63191;39.566;2.654;2022-09-09T15:59:35;31.09;61.14
74661;SHT31;63191;39.566;2.654;2022-09-09T16:02:01;31.02;61.93
74661;SHT31;63191;39.566;2.654;2022-09-09T16:04:27;30.94;61.78
74661;SHT31;63191;39.566;2.654;2022-09-09T16:06:58;30.92;62.08
74661;SHT31;63191;39.566;2.654;2022-09-09T16:09:28;30.86;62.68
74661;SHT31;63191;39.566;2.654;2022-09-09T16:11:58;30.86;63.28
74661;SHT31;63191;39.566;2.654;2022-09-09T16:14:31;30.90;63.26
74661;SHT31;63191;39.566;2.654;2022-09-09T16:17:01;30.92;63.11
74661;SHT31;63191;39.566;2.654;2022-09-09T16:19:29;30.92;62.81
74661;SHT31;63191;39.566;2.654;2022-09-09T16:21:54;30.90;63.07
74661;SHT31;63191;39.566;2.654;2022-09-09T16:24:20;30.94;63.07
74661;SHT31;63191;39.566;2.654;2022-09-09T16:26:47;30.92;62.58
74661;SHT31;63191;39.566;2.654;2022-09-09T16:29:16;30.87;61.75
74661;SHT31;63191;39.566;2.654;2022-09-09T16:31:48;30.78;62.11
74661;SHT31;63191;39.566;2.654;2022-09-09T16:34:15;30.72;64.04
74661;SHT31;63191;39.566;2.654;2022-09-09T16:36:44;30.68;63.83
74661;SHT31;63191;39.566;2.654;2022-09-09T16:39:11;30.58;63.88
74661;SHT31;63191;39.566;2.654;2022-09-09T16:41:42;30.50;64.20
74661;SHT31;63191;39.566;2.654;2022-09-09T16:44:11;30.45;64.54
74661;SHT31;63191;39.566;2.654;2022-09-09T16:46:40;30.46;64.48
74661;SHT31;63191;39.566;2.654;2022-09-09T16:49:08;30.49;64.49
74661;SHT31;63191;39.566;2.654;2022-09-09T16:51:40;30.54;64.14
74661;SHT31;63191;39.566;2.654;2022-09-09T16:54:10;30.58;63.35
74661;SHT31;63191;39.566;2.654;2022-09-09T16:56:38;30.63;63.35
74661;SHT31;63191;39.566;2.654;2022-09-09T16:59:09;30.64;62.95
74661;SHT31;63191;39.566;2.654;2022-09-09T17:01:39;30.64;62.78
74661;SHT31;63191;39.566;2.654;2022-09-09T17:04:14;30.62;62.96
74661;SHT31;63191;39.566;2.654;2022-09-09T17:06:48;30.60;62.63
74661;SHT31;63191;39.566;2.654;2022-09-09T17:09:16;30.56;62.60
74661;SHT31;63191;39.566;2.654;2022-09-09T17:11:43;30.50;62.14
74661;SHT31;63191;39.566;2.654;2022-09-09T17:14:12;30.45;62.33
74661;SHT31;63191;39.566;2.654;2022-09-09T17:16:42;30.43;62.36
74661;SHT31;63191;39.566;2.654;2022-09-09T17:19:08;30.35;62.35
74661;SHT31;63191;39.566;2.654;2022-09-09T17:21:36;30.26;62.56
74661;SHT31;63191;39.566;2.654;2022-09-09T17:24:02;30.18;63.28
74661;SHT31;63191;39.566;2.654;2022-09-09T17:26:30;30.11;63.92
74661;SHT31;63191;39.566;2.654;2022-09-09T17:28:58;30.05;63.92
74661;SHT31;63191;39.566;2.654;2022-09-09T17:31:26;30.01;63.90
74661;SHT31;63191;39.566;2.654;2022-09-09T17:33:53;29.96;63.98
74661;SHT31;63191;39.566;2.654;2022-09-09T17:36:30;29.90;64.00
74661;SHT31;63191;39.566;2.654;2022-09-09T17:38:58;29.84;64.83
74661;SHT31;63191;39.566;2.654;2022-09-09T17:41:27;29.78;65.15
74661;SHT31;63191;39.566;2.654;2022-09-09T17:44:05;29.66;65.49
74661;SHT31;63191;39.566;2.654;2022-09-09T17:46:39;29.54;65.63
74661;SHT31;63191;39.566;2.654;2022-09-09T17:49:08;29.41;66.04
74661;SHT31;63191;39.566;2.654;2022-09-09T17:51:37;29.31;66.72
74661;SHT31;63191;39.566;2.654;2022-09-09T17:54:10;29.25;67.23
74661;SHT31;63191;39.566;2.654;2022-09-09T17:56:39;29.18;67.71
74661;SHT31;63191;39.566;2.654;2022-09-09T17:59:06;29.13;68.01
74661;SHT31;63191;39.566;2.654;2022-09-09T18:01:35;29.09;68.32
74661;SHT31;63191;39.566;2.654;2022-09-09T18:04:04;29.04;68.47
74661;SHT31;63191;39.566;2.654;2022-09-09T18:06:34;29.01;68.66
74661;SHT31;63191;39.566;2.654;2022-09-09T18:09:07;28.99;68.83
74661;SHT31;63191;39.566;2.654;2022-09-09T18:11:43;28.96;68.85
74661;SHT31;63191;39.566;2.654;2022-09-09T18:14:13;28.93;68.66
74661;SHT31;63191;39.566;2.654;2022-09-09T18:16:45;28.91;68.52
74661;SHT31;63191;39.566;2.654;2022-09-09T18:19:14;28.86;68.35
74661;SHT31;63191;39.566;2.654;2022-09-09T18:21:43;28.83;68.57